createdAt,value
2022-12-17T00:01:04.693Z,54.40
2022-12-17T00:03:51.064Z,50.50
2022-12-17T00:06:48.484Z,45.70
2022-12-17T00:09:33.812Z,57.30
2022-12-17T00:12:19.047Z,49.73
2022-12-17T00:15:04.640Z,54.30
2022-12-17T00:17:50.008Z,57.53
2022-12-17T00:20:35.568Z,53.90
2022-12-17T00:23:22.982Z,52.90
2022-12-17T00:26:12.621Z,53.63
2022-12-17T00:28:58.166Z,63.23
2022-12-17T00:31:45.889Z,63.97
2022-12-17T00:34:31.897Z,71.80
2022-12-17T00:37:17.313Z,57.63
2022-12-17T00:40:02.793Z,68.87
2022-12-17T00:42:48.145Z,68.57
2022-12-17T00:45:33.649Z,73.83
2022-12-17T00:48:19.183Z,74.70
2022-12-17T00:51:04.606Z,80.67
2022-12-17T00:53:50.028Z,84.13
2022-12-17T00:56:35.400Z,66.73
2022-12-17T00:59:20.800Z,81.03
2022-12-17T01:02:06.551Z,70.47
2022-12-17T01:04:52.169Z,90.27
2022-12-17T01:07:37.823Z,72.47
2022-12-17T01:10:23.686Z,84.23
2022-12-17T01:13:09.437Z,76.63
2022-12-17T01:15:55.489Z,69.47
2022-12-17T01:18:49.768Z,73.00
2022-12-17T01:21:35.113Z,72.13
2022-12-17T01:24:20.540Z,66.50
2022-12-17T01:27:06.170Z,77.77
2022-12-17T01:29:51.556Z,74.63
2022-12-17T01:32:36.675Z,58.00
2022-12-17T01:35:22.131Z,57.10
2022-12-17T01:38:07.759Z,64.10
2022-12-17T01:40:53.322Z,60.03
2022-12-17T01:43:54.154Z,69.40
2022-12-17T01:46:41.165Z,60.83
2022-12-17T01:49:27.967Z,62.50
2022-12-17T01:52:14.084Z,64.47
2022-12-17T01:54:59.856Z,59.47
2022-12-17T01:57:46.189Z,53.67
2022-12-17T02:00:34.521Z,72.73
2022-12-17T02:03:20.024Z,57.13
2022-12-17T02:06:33.907Z,60.80
2022-12-17T02:09:39.728Z,59.60
2022-12-17T02:13:20.819Z,52.87
2022-12-17T02:16:11.920Z,53.53
2022-12-17T02:19:21.736Z,56.60
2022-12-17T02:22:15.248Z,59.67
2022-12-17T02:28:01.884Z,49.73
2022-12-17T02:30:48.868Z,57.40
2022-12-17T02:33:35.636Z,63.03
2022-12-17T02:36:25.696Z,65.77
2022-12-17T02:39:11.218Z,62.00
2022-12-17T02:42:04.946Z,59.10
2022-12-17T02:44:51.832Z,56.00
2022-12-17T02:47:38.516Z,68.97
2022-12-17T02:50:25.271Z,62.60
2022-12-17T02:53:11.171Z,76.90
2022-12-17T02:55:56.844Z,63.20
2022-12-17T02:58:42.038Z,65.17
2022-12-17T03:01:27.629Z,67.33
2022-12-17T03:04:12.999Z,70.87
2022-12-17T03:06:58.440Z,64.57
2022-12-17T03:09:44.052Z,63.10
2022-12-17T03:12:29.511Z,69.20
2022-12-17T03:15:15.049Z,55.67
2022-12-17T03:18:00.569Z,70.30
2022-12-17T03:20:46.041Z,72.20
2022-12-17T03:23:31.920Z,62.90
2022-12-17T03:26:19.571Z,68.40
2022-12-17T03:29:05.696Z,69.80
2022-12-17T03:31:51.596Z,65.23
2022-12-17T03:34:37.119Z,75.20
2022-12-17T03:37:22.434Z,56.77
2022-12-17T03:40:07.943Z,69.40
2022-12-17T03:42:53.516Z,65.30
2022-12-17T03:45:39.133Z,65.47
2022-12-17T03:48:32.683Z,65.37
2022-12-17T03:51:19.360Z,77.03
2022-12-17T03:54:05.853Z,81.30
2022-12-17T03:56:52.853Z,69.10
2022-12-17T03:59:38.466Z,72.50
2022-12-17T04:02:24.086Z,68.23
2022-12-17T04:05:13.850Z,66.10
2022-12-17T04:08:02.371Z,77.30
2022-12-17T04:10:47.850Z,69.27
2022-12-17T04:13:38.781Z,56.50
2022-12-17T04:16:25.890Z,68.37
2022-12-17T04:19:11.402Z,74.87
2022-12-17T04:21:56.815Z,64.30
2022-12-17T04:24:42.162Z,64.20
2022-12-17T04:27:32.081Z,68.00
2022-12-17T04:30:17.438Z,71.63
2022-12-17T04:33:02.961Z,72.07
2022-12-17T04:35:48.351Z,67.17
2022-12-17T04:38:33.879Z,67.00
2022-12-17T04:41:18.922Z,65.23
2022-12-17T04:44:04.555Z,60.27
2022-12-17T04:46:50.241Z,64.10
2022-12-17T04:49:35.601Z,79.43
2022-12-17T04:52:20.967Z,77.17
2022-12-17T04:55:06.143Z,59.80
2022-12-17T04:57:51.864Z,66.80
2022-12-17T05:00:37.421Z,69.47
2022-12-17T05:03:26.525Z,63.90
2022-12-17T05:06:11.929Z,67.63
2022-12-17T05:08:57.472Z,62.07
2022-12-17T05:11:43.368Z,62.60
2022-12-17T05:14:28.833Z,57.20
2022-12-17T05:17:14.400Z,58.80
2022-12-17T05:19:59.684Z,60.50
2022-12-17T05:22:44.858Z,61.83
2022-12-17T05:28:02.180Z,59.03
2022-12-17T05:30:47.757Z,55.67
2022-12-17T05:33:33.926Z,62.73
2022-12-17T05:36:20.357Z,58.07
2022-12-17T05:39:08.416Z,61.77
2022-12-17T05:41:53.823Z,49.67
2022-12-17T05:44:39.326Z,52.30
2022-12-17T05:47:24.928Z,68.60
2022-12-17T05:50:10.317Z,60.93
2022-12-17T05:52:55.874Z,62.00
2022-12-17T05:55:41.863Z,63.17
2022-12-17T05:58:29.488Z,60.83
2022-12-17T06:01:16.849Z,58.50
2022-12-17T06:04:02.808Z,64.67
2022-12-17T06:06:48.228Z,59.70
2022-12-17T06:09:33.874Z,62.73
2022-12-17T06:12:19.306Z,63.03
2022-12-17T06:15:04.856Z,63.67
2022-12-17T06:17:50.524Z,60.50
2022-12-17T06:20:36.338Z,61.77
2022-12-17T06:23:27.571Z,62.13
2022-12-17T06:26:14.703Z,66.80
2022-12-17T06:29:01.174Z,58.43
2022-12-17T06:31:46.967Z,66.30
2022-12-17T06:34:32.319Z,63.43
2022-12-17T06:37:17.959Z,67.97
2022-12-17T06:40:03.116Z,75.60
2022-12-17T06:42:48.716Z,63.63
2022-12-17T06:45:34.288Z,61.00
2022-12-17T06:48:27.469Z,60.10
2022-12-17T06:51:15.591Z,64.27
2022-12-17T06:54:01.203Z,59.57
2022-12-17T06:56:46.732Z,60.33
2022-12-17T06:59:32.261Z,58.20
2022-12-17T07:02:18.067Z,51.07
2022-12-17T07:05:03.616Z,63.77
2022-12-17T07:07:49.241Z,60.40
2022-12-17T07:10:34.578Z,66.57
2022-12-17T07:13:27.321Z,66.57
2022-12-17T07:16:13.913Z,62.27
2022-12-17T07:18:59.615Z,58.23
2022-12-17T07:21:45.486Z,65.33
2022-12-17T07:24:31.007Z,48.93
2022-12-17T07:27:16.413Z,55.50
2022-12-17T07:30:01.869Z,51.27
2022-12-17T07:32:47.490Z,47.80
2022-12-17T07:35:33.349Z,54.47
2022-12-17T07:38:20.156Z,39.47
2022-12-17T07:41:05.382Z,37.00
2022-12-17T07:43:53.120Z,42.10
2022-12-17T07:46:39.487Z,41.43
2022-12-17T07:49:26.225Z,39.47
2022-12-17T07:52:12.189Z,44.90
2022-12-17T07:54:57.819Z,34.00
2022-12-17T07:57:44.067Z,30.80
2022-12-17T08:00:30.589Z,36.07
2022-12-17T08:03:17.770Z,41.23
2022-12-17T08:06:03.918Z,40.83
2022-12-17T08:08:49.501Z,39.27
2022-12-17T08:11:35.144Z,34.93
2022-12-17T08:14:20.506Z,33.50
2022-12-17T08:17:05.977Z,40.53
2022-12-17T08:19:51.331Z,36.10
2022-12-17T08:22:36.416Z,39.30
2022-12-17T08:28:07.373Z,37.00
2022-12-17T08:30:56.175Z,46.27
2022-12-17T08:33:41.508Z,34.93
2022-12-17T08:36:28.106Z,40.07
2022-12-17T08:39:13.662Z,39.33
2022-12-17T08:42:04.090Z,34.57
2022-12-17T08:44:50.041Z,37.90
2022-12-17T08:47:35.444Z,44.30
2022-12-17T08:50:20.897Z,45.17
2022-12-17T08:53:06.348Z,40.97
2022-12-17T08:55:51.842Z,38.37
2022-12-17T08:58:37.234Z,26.73
2022-12-17T09:01:22.791Z,32.03
2022-12-17T09:04:07.992Z,38.37
2022-12-17T09:06:53.165Z,33.13
2022-12-17T09:09:38.586Z,38.00
2022-12-17T09:12:24.102Z,43.07
2022-12-17T09:15:09.455Z,39.13
2022-12-17T09:17:55.040Z,37.33
2022-12-17T09:20:40.427Z,38.17
2022-12-17T09:23:25.881Z,36.40
2022-12-17T09:26:20.563Z,35.50
2022-12-17T09:29:06.361Z,37.80
2022-12-17T09:31:52.164Z,44.20
2022-12-17T09:34:37.930Z,36.83
2022-12-17T09:37:23.180Z,42.10
2022-12-17T09:40:08.534Z,42.20
2022-12-17T09:43:19.250Z,44.60
2022-12-17T09:46:25.701Z,45.27
2022-12-17T09:49:27.958Z,36.50
2022-12-17T09:52:13.530Z,38.83
2022-12-17T09:55:04.879Z,29.37
2022-12-17T09:57:53.438Z,41.13
2022-12-17T10:00:42.466Z,35.13
2022-12-17T10:03:33.668Z,36.07
2022-12-17T10:06:31.593Z,39.50
2022-12-17T10:09:28.458Z,36.70
2022-12-17T10:12:15.661Z,32.73
2022-12-17T10:15:00.896Z,33.80
2022-12-17T10:17:46.348Z,32.00
2022-12-17T10:21:00.645Z,37.50
2022-12-17T10:23:48.527Z,28.47
2022-12-17T10:26:38.594Z,32.50
2022-12-17T10:29:36.595Z,36.60
2022-12-17T10:32:40.055Z,36.10
2022-12-17T10:35:36.632Z,32.30
2022-12-17T10:38:48.887Z,37.00
2022-12-17T10:41:41.631Z,44.87
2022-12-17T10:45:09.403Z,39.63
2022-12-17T10:47:54.584Z,37.43
2022-12-17T10:50:42.210Z,38.83
2022-12-17T10:53:38.722Z,50.50
2022-12-17T10:56:24.810Z,32.47
2022-12-17T10:59:12.768Z,35.20
2022-12-17T11:01:58.875Z,47.73
2022-12-17T11:04:51.549Z,35.60
2022-12-17T11:07:52.692Z,35.07
2022-12-17T11:10:49.052Z,44.30
2022-12-17T11:13:51.967Z,39.17
2022-12-17T11:16:46.539Z,33.60
2022-12-17T11:19:32.008Z,33.10
2022-12-17T11:22:56.553Z,31.60
2022-12-17T11:26:03.761Z,29.70
2022-12-17T11:28:52.973Z,27.37
2022-12-17T11:32:05.466Z,28.30
2022-12-17T11:34:50.996Z,31.30
2022-12-17T11:37:41.417Z,27.50
2022-12-17T11:40:54.953Z,38.43
2022-12-17T11:44:07.536Z,30.60
2022-12-17T11:47:21.900Z,31.17
2022-12-17T11:50:43.723Z,37.00
2022-12-17T11:53:34.753Z,29.10
2022-12-17T11:56:49.112Z,30.30
2022-12-17T11:59:54.261Z,26.50
2022-12-17T12:02:54.155Z,28.00
2022-12-17T12:05:56.460Z,31.97
2022-12-17T12:08:57.131Z,32.20
2022-12-17T12:11:56.981Z,30.50
2022-12-17T12:15:16.392Z,33.07
2022-12-17T12:18:11.421Z,31.00
2022-12-17T12:21:06.002Z,39.00
2022-12-17T12:24:12.900Z,32.37
2022-12-17T12:27:22.999Z,34.33
2022-12-17T12:30:17.982Z,27.80
2022-12-17T12:33:41.329Z,25.73
2022-12-17T12:36:31.168Z,33.13
2022-12-17T12:39:16.939Z,37.60
2022-12-17T12:42:18.030Z,29.97
2022-12-17T12:45:26.015Z,41.47
2022-12-17T12:48:22.568Z,27.33
2022-12-17T12:51:19.142Z,34.87
2022-12-17T12:54:18.866Z,26.83
2022-12-17T12:57:10.165Z,35.63
2022-12-17T13:00:05.164Z,36.33
2022-12-17T13:02:59.424Z,28.10
2022-12-17T13:05:47.060Z,32.00
2022-12-17T13:08:19.439Z,30.43
2022-12-17T13:10:47.669Z,27.20
2022-12-17T13:13:36.837Z,28.83
2022-12-17T13:16:21.992Z,32.67
2022-12-17T13:18:49.008Z,31.77
2022-12-17T13:21:15.932Z,34.00
2022-12-17T13:23:43.793Z,28.53
2022-12-17T13:26:30.303Z,33.40
2022-12-17T13:29:31.654Z,30.83
2022-12-17T13:32:07.356Z,30.20
2022-12-17T13:34:45.516Z,26.27
2022-12-17T13:37:15.048Z,33.20
2022-12-17T13:40:05.072Z,46.83
2022-12-17T13:42:35.255Z,46.90
2022-12-17T13:45:02.963Z,28.53
2022-12-17T13:47:33.302Z,33.97
2022-12-17T13:52:48.915Z,27.37
2022-12-17T13:55:27.162Z,37.13
2022-12-17T13:57:54.462Z,28.77
2022-12-17T14:00:24.102Z,32.37
2022-12-17T14:02:52.114Z,33.00
2022-12-17T14:05:46.100Z,29.43
2022-12-17T14:08:17.831Z,23.60
2022-12-17T14:10:50.686Z,28.00
2022-12-17T14:13:18.125Z,30.00
2022-12-17T14:15:51.240Z,30.70
2022-12-17T14:18:20.950Z,30.40
2022-12-17T14:20:49.358Z,37.90
2022-12-17T14:23:27.236Z,37.87
2022-12-17T14:25:54.656Z,29.30
2022-12-17T14:28:31.686Z,29.00
2022-12-17T14:31:29.036Z,42.23
2022-12-17T14:34:13.928Z,32.63
2022-12-17T14:36:42.679Z,37.33
2022-12-17T14:39:22.966Z,42.70
2022-12-17T14:42:08.307Z,41.03
2022-12-17T14:44:37.647Z,37.43
2022-12-17T14:47:18.984Z,39.03
2022-12-17T14:50:06.790Z,34.53
2022-12-17T14:52:41.029Z,39.73
2022-12-17T14:55:23.409Z,41.93
2022-12-17T14:58:07.785Z,33.73
2022-12-17T15:00:41.137Z,49.13
2022-12-17T15:03:22.071Z,42.57
2022-12-17T15:06:08.971Z,42.10
2022-12-17T15:08:50.432Z,45.23
2022-12-17T15:11:20.229Z,41.63
2022-12-17T15:13:50.331Z,47.20
2022-12-17T15:16:19.721Z,33.83
2022-12-17T15:18:46.413Z,40.47
2022-12-17T15:21:13.383Z,46.63
2022-12-17T15:23:43.926Z,44.67
2022-12-17T15:26:11.941Z,39.50
2022-12-17T15:28:42.879Z,43.33
2022-12-17T15:31:11.570Z,47.07
2022-12-17T15:33:38.774Z,42.50
2022-12-17T15:36:06.170Z,44.10
2022-12-17T15:38:33.189Z,38.47
2022-12-17T15:41:00.703Z,40.23
2022-12-17T15:43:27.414Z,58.07
2022-12-17T15:45:54.186Z,48.63
2022-12-17T15:48:23.321Z,42.63
2022-12-17T15:50:50.125Z,54.00
2022-12-17T15:53:17.015Z,44.10
2022-12-17T15:55:43.717Z,38.63
2022-12-17T15:58:14.032Z,51.20
2022-12-17T16:00:40.906Z,52.40
2022-12-17T16:03:07.826Z,43.27
2022-12-17T16:05:34.611Z,52.30
2022-12-17T16:08:02.764Z,58.57
2022-12-17T16:10:29.876Z,67.73
2022-12-17T16:12:56.612Z,63.27
2022-12-17T16:15:23.348Z,62.03
2022-12-17T16:17:50.036Z,61.20
2022-12-17T16:20:17.001Z,49.30
2022-12-17T16:22:44.439Z,41.30
2022-12-17T16:27:42.741Z,70.13
2022-12-17T16:30:11.415Z,46.17
2022-12-17T16:32:38.716Z,69.77
2022-12-17T16:35:06.317Z,69.33
2022-12-17T16:37:33.057Z,52.83
2022-12-17T16:40:00.324Z,54.20
2022-12-17T16:42:28.016Z,68.50
2022-12-17T16:44:54.785Z,65.10
2022-12-17T16:47:21.648Z,62.33
2022-12-17T16:49:50.916Z,63.07
2022-12-17T16:52:17.667Z,80.67
2022-12-17T16:54:44.515Z,85.93
2022-12-17T16:57:11.245Z,74.03
2022-12-17T16:59:38.018Z,75.73
2022-12-17T17:02:04.907Z,52.63
2022-12-17T17:04:31.787Z,73.87
2022-12-17T17:06:58.629Z,61.30
2022-12-17T17:09:25.768Z,71.10
2022-12-17T17:11:56.420Z,67.93
2022-12-17T17:14:24.072Z,60.23
2022-12-17T17:16:51.416Z,58.30
2022-12-17T17:19:19.623Z,72.20
2022-12-17T17:21:54.431Z,66.33
2022-12-17T17:24:24.083Z,53.10
2022-12-17T17:26:51.996Z,60.33
2022-12-17T17:29:19.679Z,71.63
2022-12-17T17:32:09.094Z,85.60
2022-12-17T17:34:36.091Z,86.07
2022-12-17T17:37:02.876Z,78.00
2022-12-17T17:39:33.330Z,63.50
2022-12-17T17:42:00.499Z,86.73
2022-12-17T17:44:27.380Z,80.00
2022-12-17T17:46:54.195Z,121.27
2022-12-17T17:49:20.985Z,77.33
2022-12-17T17:54:34.616Z,67.00
2022-12-17T17:57:01.330Z,68.10
2022-12-17T17:59:33.371Z,68.00
2022-12-17T18:02:02.336Z,80.07
2022-12-17T18:04:29.321Z,107.80
2022-12-17T18:09:42.889Z,86.90
2022-12-17T18:12:28.329Z,67.77
2022-12-17T18:15:13.861Z,70.13
2022-12-17T18:17:41.716Z,66.03
2022-12-17T18:20:09.760Z,74.03
2022-12-17T18:22:36.997Z,68.13
2022-12-17T18:27:32.293Z,59.00
2022-12-17T18:29:58.983Z,51.33
2022-12-17T18:32:25.776Z,106.23
2022-12-17T18:34:52.481Z,68.57
2022-12-17T18:37:19.174Z,50.67
2022-12-17T18:39:46.030Z,85.97
2022-12-17T18:42:31.676Z,65.53
2022-12-17T18:44:58.432Z,90.40
2022-12-17T18:47:25.685Z,65.30
2022-12-17T18:49:52.562Z,71.87
2022-12-17T18:52:19.564Z,56.43
2022-12-17T18:54:46.331Z,59.87
2022-12-17T18:57:13.195Z,62.30
2022-12-17T18:59:40.972Z,51.83
2022-12-17T19:02:12.403Z,84.40
2022-12-17T19:04:39.581Z,129.80
2022-12-17T19:07:06.463Z,438.30
2022-12-17T19:09:38.445Z,85.53
2022-12-17T19:12:06.745Z,62.80
2022-12-17T19:14:34.278Z,62.73
2022-12-17T19:17:01.726Z,107.50
2022-12-17T19:19:28.696Z,184.50
2022-12-17T19:21:56.055Z,360.17
2022-12-17T19:24:23.602Z,151.20
2022-12-17T19:26:51.767Z,205.07
2022-12-17T19:29:20.481Z,207.27
2022-12-17T19:31:47.531Z,115.67
2022-12-17T19:34:16.683Z,178.00
2022-12-17T19:36:43.949Z,82.17
2022-12-17T19:39:16.424Z,84.00
2022-12-17T19:41:43.910Z,106.40
2022-12-17T19:44:15.732Z,108.23
2022-12-17T19:46:43.635Z,133.00
2022-12-17T19:49:13.219Z,117.03
2022-12-17T19:51:42.931Z,90.70
2022-12-17T19:54:12.397Z,54.37
2022-12-17T19:56:39.391Z,97.63
2022-12-17T19:59:08.040Z,66.80
2022-12-17T20:01:37.774Z,78.13
2022-12-17T20:04:05.754Z,58.93
2022-12-17T20:06:34.544Z,66.63
2022-12-17T20:09:02.403Z,67.27
2022-12-17T20:11:36.123Z,70.77
2022-12-17T20:14:15.246Z,53.27
2022-12-17T20:16:56.418Z,53.27
2022-12-17T20:19:31.127Z,58.00
2022-12-17T20:22:02.996Z,62.73
2022-12-17T20:24:31.885Z,86.60
2022-12-17T20:26:59.542Z,84.30
2022-12-17T20:29:26.278Z,74.07
2022-12-17T20:31:53.768Z,51.13
2022-12-17T20:34:20.791Z,49.23
2022-12-17T20:36:47.674Z,59.33
2022-12-17T20:39:14.541Z,58.50
2022-12-17T20:41:41.899Z,54.67
2022-12-17T20:44:12.166Z,58.00
2022-12-17T20:46:41.208Z,50.27
2022-12-17T20:49:08.341Z,60.20
2022-12-17T20:51:35.279Z,54.13
2022-12-17T20:54:04.078Z,48.67
2022-12-17T20:56:33.771Z,62.63
2022-12-17T20:59:04.071Z,52.67
2022-12-17T21:01:32.987Z,41.50
2022-12-17T21:04:00.800Z,40.53
2022-12-17T21:06:32.426Z,41.93
2022-12-17T21:08:59.484Z,56.60
2022-12-17T21:11:28.438Z,34.63
2022-12-17T21:13:55.702Z,34.87
2022-12-17T21:16:26.036Z,39.07
2022-12-17T21:18:53.646Z,44.13
2022-12-17T21:21:23.779Z,34.70
2022-12-17T21:23:50.857Z,43.20
2022-12-17T21:26:20.991Z,40.23
2022-12-17T21:28:50.266Z,41.80
2022-12-17T21:31:44.725Z,32.87
2022-12-17T21:34:14.282Z,41.17
2022-12-17T21:36:41.088Z,40.27
2022-12-17T21:39:09.817Z,40.20
2022-12-17T21:41:42.325Z,33.83
2022-12-17T21:44:12.998Z,32.83
2022-12-17T21:46:40.761Z,38.23
2022-12-17T21:49:07.551Z,37.20
2022-12-17T21:51:34.499Z,40.47
2022-12-17T21:54:08.691Z,31.97
2022-12-17T21:56:35.801Z,30.57
2022-12-17T21:59:02.547Z,25.03
2022-12-17T22:01:32.570Z,27.30
2022-12-17T22:04:01.412Z,29.10
2022-12-17T22:06:31.791Z,33.30
2022-12-17T22:09:03.845Z,54.80
2022-12-17T22:11:35.955Z,40.90
2022-12-17T22:14:08.190Z,28.93
2022-12-17T22:16:42.310Z,29.63
2022-12-17T22:19:11.020Z,45.13
2022-12-17T22:21:40.790Z,43.73
2022-12-17T22:24:07.885Z,49.27
2022-12-17T22:26:34.828Z,47.93
2022-12-17T22:29:01.604Z,38.27
2022-12-17T22:31:47.021Z,40.33
2022-12-17T22:35:17.122Z,33.00
2022-12-17T22:39:09.753Z,35.47
2022-12-17T22:44:29.053Z,37.40
2022-12-17T22:44:38.491Z,32.47
2022-12-17T22:45:41.364Z,35.03
2022-12-17T22:48:09.978Z,28.93
2022-12-17T22:50:43.364Z,28.77
2022-12-17T22:53:22.405Z,31.23
2022-12-17T22:55:50.083Z,27.57
2022-12-17T22:58:18.148Z,25.43
2022-12-17T23:00:45.196Z,27.03
2022-12-17T23:03:12.052Z,26.80
2022-12-17T23:05:38.827Z,27.00
2022-12-17T23:08:05.698Z,24.43
2022-12-17T23:10:32.476Z,28.07
2022-12-17T23:12:59.219Z,26.87
2022-12-17T23:15:36.870Z,24.03
2022-12-17T23:18:06.712Z,22.50
2022-12-17T23:20:34.920Z,20.97
2022-12-17T23:23:01.888Z,24.57
2022-12-17T23:25:29.534Z,24.27
2022-12-17T23:27:56.306Z,26.03
2022-12-17T23:30:23.009Z,30.80
2022-12-17T23:32:49.737Z,27.90
2022-12-17T23:35:16.680Z,28.90
2022-12-17T23:37:43.351Z,34.23
2022-12-17T23:40:11.374Z,21.97
2022-12-17T23:42:38.672Z,27.97
2022-12-17T23:45:07.150Z,22.80
2022-12-17T23:47:33.899Z,27.63
2022-12-17T23:50:00.708Z,32.50
2022-12-17T23:52:27.482Z,35.00
2022-12-17T23:54:54.243Z,29.70
2022-12-17T23:57:20.938Z,25.53
2022-12-17T23:59:47.596Z,27.10
